Terminal Aerodrome Forecast
Issued by NWS

Home | Current Version | Previous Version | Text Only | Print | Product List | Glossary On
Versions: 1 2 3 4 5 6 7 8 9 10 11 12 13
000
FTUS46 KSGX 102300
TAFTRM
TAF
KTRM 102322Z 1100/1124 14008KT P6SM SKC
     FM110100 VRB05KT P6SM SKC
     FM110400 33010KT P6SM SKC
     FM110900 32006KT P6SM SKC
     FM112000 14008KT P6SM SKC=

USA.gov is the U.S. government's official web portal to all federal, state and local government web resources and services.